createdAt,value
2019-01-31T00:01:51.508Z,97703.91
2019-01-31T00:05:29.038Z,97706.98
2019-01-31T00:08:46.156Z,97703.11
2019-01-31T00:12:35.114Z,97704.58
2019-01-31T00:15:56.652Z,97694.05
2019-01-31T00:18:38.115Z,97695.02
2019-01-31T00:22:15.619Z,97695.33
2019-01-31T00:24:56.736Z,97692.58
2019-01-31T00:27:49.362Z,97695.98
2019-01-31T00:30:47.902Z,97692.91
2019-01-31T00:34:00.347Z,97697.95
2019-01-31T00:37:53.622Z,97692.77
2019-01-31T00:41:14.726Z,97696.17
2019-01-31T00:44:27.581Z,97703.77
2019-01-31T00:47:52.420Z,97701.31
2019-01-31T00:50:44.768Z,97702.73
2019-01-31T00:53:55.562Z,97700.92
2019-01-31T00:57:17.641Z,97702.98
2019-01-31T01:00:44.898Z,97707.93
2019-01-31T01:04:14.062Z,97705.13
2019-01-31T01:07:47.575Z,97708.59
2019-01-31T01:11:12.261Z,97711.91
2019-01-31T01:14:21.080Z,97720.23
2019-01-31T01:17:40.974Z,97720.45
2019-01-31T01:21:00.685Z,97722.82
2019-01-31T01:23:56.719Z,97721.83
2019-01-31T01:27:25.043Z,97720.33
2019-01-31T01:30:25.202Z,97726.39
2019-01-31T01:33:54.306Z,97733.41
2019-01-31T01:37:10.509Z,97735.71
2019-01-31T01:40:35.341Z,97733.40
2019-01-31T01:43:25.501Z,97733.80
2019-01-31T01:47:04.190Z,97728.86
2019-01-31T01:50:02.075Z,97733.53
2019-01-31T01:53:14.486Z,97727.33
2019-01-31T01:56:54.839Z,97730.64
2019-01-31T02:00:21.981Z,97734.90
2019-01-31T02:03:31.307Z,97733.12
2019-01-31T02:06:40.210Z,97728.90
2019-01-31T02:09:59.473Z,97727.31
2019-01-31T02:13:20.600Z,97716.80
2019-01-31T02:16:42.586Z,97717.11
2019-01-31T02:20:16.782Z,97714.16
2019-01-31T02:23:38.904Z,97709.05
2019-01-31T02:27:17.303Z,97710.94
2019-01-31T02:30:48.567Z,97709.67
2019-01-31T02:34:23.702Z,97713.09
2019-01-31T02:37:20.489Z,97707.69
2019-01-31T02:40:37.886Z,97705.33
2019-01-31T02:43:51.845Z,97701.09
2019-01-31T02:47:06.621Z,97704.62
2019-01-31T02:50:11.554Z,97703.12
2019-01-31T02:53:43.044Z,97705.81
2019-01-31T02:57:15.038Z,97704.15
2019-01-31T03:00:44.351Z,97701.63
2019-01-31T03:04:12.165Z,97701.66
2019-01-31T03:07:47.364Z,97703.04
2019-01-31T03:11:10.339Z,97699.20
2019-01-31T03:14:34.617Z,97696.23
2019-01-31T03:18:14.420Z,97706.68
2019-01-31T03:21:09.645Z,97699.33
2019-01-31T03:24:35.534Z,97704.63
2019-01-31T03:27:52.887Z,97702.45
2019-01-31T03:31:09.392Z,97701.78
2019-01-31T03:34:31.240Z,97698.20
2019-01-31T03:38:06.654Z,97697.22
2019-01-31T03:41:37.414Z,97695.21
2019-01-31T03:45:19.530Z,97690.45
2019-01-31T03:48:23.819Z,97687.62
2019-01-31T03:51:33.498Z,97686.61
2019-01-31T03:55:07.910Z,97687.03
2019-01-31T03:58:29.644Z,97704.81
2019-01-31T04:01:52.089Z,97709.02
2019-01-31T04:04:32.458Z,97704.79
2019-01-31T04:07:00.313Z,97700.37
2019-01-31T04:09:28.520Z,97704.48
2019-01-31T04:11:56.350Z,97705.27
2019-01-31T04:14:27.302Z,97702.53
2019-01-31T04:16:53.807Z,97702.87
2019-01-31T04:19:21.648Z,97707.18
2019-01-31T04:21:49.395Z,97704.72
2019-01-31T04:24:17.188Z,97704.32
2019-01-31T04:26:44.945Z,97711.55
2019-01-31T04:29:18.082Z,97702.24
2019-01-31T04:31:45.810Z,97698.59
2019-01-31T04:34:13.625Z,97700.98
2019-01-31T04:36:41.404Z,97703.55
2019-01-31T04:39:09.575Z,97706.05
2019-01-31T04:41:37.385Z,97707.42
2019-01-31T04:44:05.242Z,97710.44
2019-01-31T04:46:33.109Z,97714.59
2019-01-31T04:49:00.894Z,97717.19
2019-01-31T04:51:28.694Z,97718.39
2019-01-31T04:53:56.478Z,97710.57
2019-01-31T04:56:24.331Z,97709.70
2019-01-31T04:58:52.618Z,97705.96
2019-01-31T05:01:20.426Z,97700.66
2019-01-31T05:03:48.231Z,97706.91
2019-01-31T05:06:16.035Z,97702.09
2019-01-31T05:08:44.081Z,97704.09
2019-01-31T05:11:11.881Z,97702.23
2019-01-31T05:13:39.671Z,97712.23
2019-01-31T05:16:07.560Z,97714.89
2019-01-31T05:18:35.379Z,97708.13
2019-01-31T05:21:03.440Z,97709.85
2019-01-31T05:23:31.205Z,97706.58
2019-01-31T05:25:59.020Z,97706.23
2019-01-31T05:28:32.112Z,97704.38
2019-01-31T05:30:59.894Z,97704.53
2019-01-31T05:33:27.671Z,97702.86
2019-01-31T05:35:55.468Z,97705.22
2019-01-31T05:38:23.264Z,97707.06
2019-01-31T05:40:55.611Z,97706.05
2019-01-31T05:43:20.777Z,97700.74
2019-01-31T05:45:48.578Z,97696.92
2019-01-31T05:48:16.858Z,97697.81
2019-01-31T05:50:47.541Z,97696.83
2019-01-31T05:53:15.301Z,97698.08
2019-01-31T05:55:43.131Z,97697.70
2019-01-31T05:58:16.323Z,97695.53
2019-01-31T06:00:44.130Z,97691.33
2019-01-31T06:03:19.338Z,97697.74
2019-01-31T06:05:47.321Z,97696.26
2019-01-31T06:08:15.098Z,97694.95
2019-01-31T06:10:42.924Z,97703.80
2019-01-31T06:13:10.749Z,97700.45
2019-01-31T06:15:38.546Z,97702.34
2019-01-31T06:18:06.291Z,97706.10
2019-01-31T06:20:34.113Z,97706.48
2019-01-31T06:23:01.923Z,97707.40
2019-01-31T06:25:29.777Z,97705.85
2019-01-31T06:27:57.771Z,97703.62
2019-01-31T06:30:25.594Z,97708.69
2019-01-31T06:32:53.340Z,97708.92
2019-01-31T06:35:21.110Z,97711.95
2019-01-31T06:37:49.181Z,97712.78
2019-01-31T06:40:18.368Z,97711.20
2019-01-31T06:42:46.346Z,97722.05
2019-01-31T06:45:18.735Z,97721.59
2019-01-31T06:47:46.529Z,97721.66
2019-01-31T06:50:14.338Z,97717.91
2019-01-31T06:52:54.380Z,97717.83
2019-01-31T06:55:22.270Z,97722.20
2019-01-31T06:57:50.035Z,97685.77
2019-01-31T07:00:20.258Z,97720.61
2019-01-31T07:02:48.007Z,97723.38
2019-01-31T07:05:21.844Z,97725.14
2019-01-31T07:07:49.612Z,97719.69
2019-01-31T07:10:22.889Z,97714.16
2019-01-31T07:12:50.676Z,97711.78
2019-01-31T07:15:18.489Z,97709.73
2019-01-31T07:17:46.391Z,97710.64
2019-01-31T07:20:15.062Z,97708.70
2019-01-31T07:22:42.830Z,97714.66
2019-01-31T07:25:15.551Z,97714.83
2019-01-31T07:27:43.382Z,97726.51
2019-01-31T07:30:12.286Z,97727.41
2019-01-31T07:32:40.053Z,97719.02
2019-01-31T07:35:10.491Z,97704.80
2019-01-31T07:37:38.512Z,97707.22
2019-01-31T07:40:08.221Z,97707.24
2019-01-31T07:42:36.288Z,97708.61
2019-01-31T07:45:06.725Z,97705.11
2019-01-31T07:47:36.747Z,97704.05
2019-01-31T07:50:05.889Z,97705.23
2019-01-31T07:52:33.754Z,97704.73
2019-01-31T07:55:02.201Z,97706.31
2019-01-31T07:57:30.178Z,97703.69
2019-01-31T08:00:11.920Z,97700.50
2019-01-31T08:02:39.809Z,97692.91
2019-01-31T08:05:11.698Z,97703.86
2019-01-31T08:07:39.616Z,97701.53
2019-01-31T08:10:12.749Z,97696.83
2019-01-31T08:12:40.902Z,97682.09
2019-01-31T08:15:10.441Z,97708.75
2019-01-31T08:17:38.249Z,97714.27
2019-01-31T08:20:06.572Z,97716.62
2019-01-31T08:22:34.316Z,97703.78
2019-01-31T08:25:02.151Z,97716.90
2019-01-31T08:27:29.900Z,97727.77
2019-01-31T08:29:57.841Z,97733.34
2019-01-31T08:32:25.750Z,97735.16
2019-01-31T08:34:53.564Z,97742.30
2019-01-31T08:37:21.382Z,97744.17
2019-01-31T08:39:54.391Z,97746.53
2019-01-31T08:42:22.223Z,97760.00
2019-01-31T08:44:50.042Z,97757.14
2019-01-31T08:47:17.849Z,97752.73
2019-01-31T08:49:45.776Z,97755.34
2019-01-31T08:52:13.611Z,97750.64
2019-01-31T08:54:41.520Z,97697.30
2019-01-31T08:57:09.390Z,97740.09
2019-01-31T09:00:13.752Z,97737.15
2019-01-31T09:02:41.512Z,97739.38
2019-01-31T09:05:09.605Z,97735.91
2019-01-31T09:07:37.407Z,97737.97
2019-01-31T09:10:09.288Z,97737.29
2019-01-31T09:12:37.385Z,97736.27
2019-01-31T09:15:05.317Z,97726.55
2019-01-31T09:17:33.086Z,97728.38
2019-01-31T09:20:00.906Z,97735.89
2019-01-31T09:23:27.110Z,97733.62
2019-01-31T09:27:03.931Z,97738.94
2019-01-31T09:29:48.451Z,97741.06
2019-01-31T09:33:33.214Z,97743.00
2019-01-31T09:36:50.802Z,97741.22
2019-01-31T09:40:08.874Z,97743.34
2019-01-31T09:43:42.371Z,97751.26
2019-01-31T09:46:51.007Z,97755.16
2019-01-31T09:50:08.823Z,97752.83
2019-01-31T09:53:40.124Z,97757.67
2019-01-31T09:57:07.051Z,97746.57
2019-01-31T10:00:40.437Z,97739.59
2019-01-31T10:03:50.560Z,97742.11
2019-01-31T10:06:35.131Z,97737.46
2019-01-31T10:10:04.598Z,97736.63
2019-01-31T10:13:18.369Z,97727.42
2019-01-31T10:16:25.651Z,97727.23
2019-01-31T10:19:56.961Z,97726.03
2019-01-31T10:23:08.791Z,97719.97
2019-01-31T10:26:44.099Z,97726.11
2019-01-31T10:29:46.132Z,97729.52
2019-01-31T10:32:51.205Z,97718.37
2019-01-31T10:36:10.169Z,97712.03
2019-01-31T10:39:53.242Z,97713.02
2019-01-31T10:42:52.315Z,97699.60
2019-01-31T10:46:04.719Z,97709.75
2019-01-31T10:49:26.556Z,97690.75
2019-01-31T10:52:46.689Z,97684.83
2019-01-31T10:55:47.787Z,97679.29
2019-01-31T10:59:03.297Z,97677.56
2019-01-31T11:03:02.311Z,97676.45
2019-01-31T11:06:18.215Z,97673.57
2019-01-31T11:09:39.007Z,97668.17
2019-01-31T11:13:10.779Z,97657.27
2019-01-31T11:16:19.232Z,97645.53
2019-01-31T11:19:53.360Z,97642.11
2019-01-31T11:23:08.454Z,97635.66
2019-01-31T11:26:35.653Z,97643.84
2019-01-31T11:29:58.411Z,97639.39
2019-01-31T11:33:11.911Z,97654.17
2019-01-31T11:36:31.020Z,97648.55
2019-01-31T11:40:24.059Z,97638.48
2019-01-31T11:43:25.085Z,97631.73
2019-01-31T11:46:36.396Z,97630.59
2019-01-31T11:50:10.250Z,97615.59
2019-01-31T11:53:43.794Z,97600.95
2019-01-31T11:56:50.463Z,97592.55
2019-01-31T11:59:18.348Z,97597.59
2019-01-31T12:01:46.087Z,97603.73
2019-01-31T12:04:16.818Z,97599.95
2019-01-31T12:06:44.573Z,97604.77
2019-01-31T12:09:21.305Z,97602.25
2019-01-31T12:12:03.786Z,97601.50
2019-01-31T12:14:31.553Z,97598.11
2019-01-31T12:16:59.513Z,97587.94
2019-01-31T12:19:27.613Z,97592.45
2019-01-31T12:21:55.477Z,97590.70
2019-01-31T12:24:23.260Z,97587.45
2019-01-31T12:26:51.151Z,97586.93
2019-01-31T12:29:18.926Z,97585.53
2019-01-31T12:31:46.732Z,97587.35
2019-01-31T12:34:14.889Z,97585.13
2019-01-31T12:36:42.741Z,97586.74
2019-01-31T12:39:11.042Z,97587.14
2019-01-31T12:41:38.873Z,97585.06
2019-01-31T12:44:07.336Z,97584.34
2019-01-31T12:46:35.164Z,97582.45
2019-01-31T12:49:03.159Z,97578.91
2019-01-31T12:51:30.970Z,97578.78
2019-01-31T12:53:58.738Z,97579.88
2019-01-31T12:56:26.565Z,97576.98
2019-01-31T12:58:54.308Z,97576.53
2019-01-31T13:01:22.295Z,97575.42
2019-01-31T13:03:50.077Z,97573.75
2019-01-31T13:06:17.911Z,97571.19
2019-01-31T13:08:45.915Z,97576.45
2019-01-31T13:11:14.758Z,97572.50
2019-01-31T13:13:46.033Z,97566.57
2019-01-31T13:16:12.196Z,97564.11
2019-01-31T13:18:50.241Z,97559.93
2019-01-31T13:21:20.708Z,97557.09
2019-01-31T13:23:47.734Z,97558.54
2019-01-31T13:26:15.643Z,97554.06
2019-01-31T13:28:43.415Z,97549.66
2019-01-31T13:31:11.227Z,97551.02
2019-01-31T13:33:39.825Z,97549.59
2019-01-31T13:36:14.776Z,97549.12
2019-01-31T13:38:42.582Z,97548.71
2019-01-31T13:41:10.421Z,97545.19
2019-01-31T13:43:38.206Z,97544.21
2019-01-31T13:46:07.713Z,97541.23
2019-01-31T13:48:35.563Z,97536.98
2019-01-31T13:51:06.752Z,97535.18
2019-01-31T13:53:34.714Z,97538.23
2019-01-31T13:56:02.636Z,97540.63
2019-01-31T13:58:30.580Z,97539.64
2019-01-31T14:00:58.420Z,97535.99
2019-01-31T14:03:26.176Z,97537.47
2019-01-31T14:05:54.144Z,97536.62
2019-01-31T14:08:22.259Z,97537.77
2019-01-31T14:10:50.090Z,97538.21
2019-01-31T14:13:17.914Z,97539.46
2019-01-31T14:15:45.739Z,97539.94
2019-01-31T14:18:13.505Z,97541.66
2019-01-31T14:20:42.901Z,97547.64
2019-01-31T14:23:10.736Z,97549.90
2019-01-31T14:25:38.577Z,97551.66
2019-01-31T14:28:11.592Z,97554.14
2019-01-31T14:30:39.535Z,97550.97
2019-01-31T14:33:16.822Z,97540.84
2019-01-31T14:35:44.831Z,97546.28
2019-01-31T14:38:12.700Z,97546.48
2019-01-31T14:40:40.508Z,97546.41
2019-01-31T14:43:08.396Z,97544.01
2019-01-31T14:45:55.668Z,97546.27
2019-01-31T14:48:51.205Z,97535.89
2019-01-31T14:51:18.961Z,97541.52
2019-01-31T14:53:46.845Z,97533.09
2019-01-31T14:56:14.701Z,97536.23
2019-01-31T14:58:47.772Z,97532.16
2019-01-31T15:01:15.583Z,97528.89
2019-01-31T15:03:43.428Z,97533.27
2019-01-31T15:06:11.249Z,97529.27
2019-01-31T15:08:39.111Z,97528.38
2019-01-31T15:11:06.971Z,97527.02
2019-01-31T15:13:34.789Z,97531.30
2019-01-31T15:16:02.625Z,97531.52
2019-01-31T15:18:30.499Z,97539.20
2019-01-31T15:20:58.273Z,97535.80
2019-01-31T15:23:26.120Z,97532.15
2019-01-31T15:25:54.042Z,97532.61
2019-01-31T15:28:21.844Z,97530.08
2019-01-31T15:30:49.725Z,97524.23
2019-01-31T15:33:18.685Z,97529.55
2019-01-31T15:35:46.519Z,97527.90
2019-01-31T15:38:14.502Z,97527.00
2019-01-31T15:40:46.159Z,97530.33
2019-01-31T15:43:14.148Z,97534.09
2019-01-31T15:45:41.953Z,97537.18
2019-01-31T15:48:10.831Z,97536.84
2019-01-31T15:50:38.736Z,97535.11
2019-01-31T15:53:06.674Z,97533.13
2019-01-31T15:55:53.956Z,97537.11
2019-01-31T15:58:22.085Z,97543.75
2019-01-31T16:00:55.745Z,97543.97
2019-01-31T16:03:25.346Z,97543.36
2019-01-31T16:05:53.194Z,97543.08
2019-01-31T16:08:21.373Z,97545.70
2019-01-31T16:10:49.323Z,97549.13
2019-01-31T16:13:17.151Z,97551.26
2019-01-31T16:15:45.722Z,97554.84
2019-01-31T16:18:14.049Z,97553.06
2019-01-31T16:20:44.836Z,97550.00
2019-01-31T16:23:13.852Z,97547.09
2019-01-31T16:25:42.314Z,97543.42
2019-01-31T16:28:10.187Z,97546.33
2019-01-31T16:30:37.966Z,97545.98
2019-01-31T16:33:06.150Z,97546.94
2019-01-31T16:35:35.440Z,97541.58
2019-01-31T16:38:04.053Z,97542.88
2019-01-31T16:40:31.820Z,97543.91
2019-01-31T16:42:59.635Z,97546.52
2019-01-31T16:45:46.887Z,97541.01
2019-01-31T16:48:14.841Z,97539.78
2019-01-31T16:50:42.614Z,97536.42
2019-01-31T16:53:10.487Z,97532.39
2019-01-31T16:55:38.291Z,97533.88
2019-01-31T16:58:07.158Z,97541.27
2019-01-31T17:00:35.075Z,97535.80
2019-01-31T17:03:05.217Z,97536.17
2019-01-31T17:05:32.589Z,97534.75
2019-01-31T17:08:00.682Z,97525.11
2019-01-31T17:10:28.507Z,97531.26
2019-01-31T17:12:56.341Z,97532.08
2019-01-31T17:15:24.452Z,97526.89
2019-01-31T17:17:52.316Z,97530.45
2019-01-31T17:20:39.234Z,97529.31
2019-01-31T17:23:07.100Z,97526.41
2019-01-31T17:25:34.918Z,97518.58
2019-01-31T17:28:22.204Z,97521.17
2019-01-31T17:30:50.024Z,97517.61
2019-01-31T17:33:17.895Z,97510.48
2019-01-31T17:35:45.753Z,97509.40
2019-01-31T17:38:13.668Z,97510.91
2019-01-31T17:40:42.344Z,97502.16
2019-01-31T17:43:11.781Z,97501.86
2019-01-31T17:45:39.707Z,97496.84
2019-01-31T17:48:10.938Z,97491.69
2019-01-31T17:50:58.201Z,97489.12
2019-01-31T17:53:26.106Z,97488.20
2019-01-31T17:55:53.983Z,97491.48
2019-01-31T17:58:21.959Z,97488.25
2019-01-31T18:00:56.610Z,97480.52
2019-01-31T18:03:25.102Z,97484.75
2019-01-31T18:05:55.308Z,97478.44
2019-01-31T18:08:28.399Z,97479.88
2019-01-31T18:10:56.330Z,97479.58
2019-01-31T18:13:27.368Z,97488.64
2019-01-31T18:15:55.290Z,97493.81
2019-01-31T18:18:23.160Z,97487.34
2019-01-31T18:20:51.026Z,97491.19
2019-01-31T18:23:18.863Z,97485.05
2019-01-31T18:25:46.645Z,97477.40
2019-01-31T18:28:14.483Z,97478.37
2019-01-31T18:30:42.334Z,97484.86
2019-01-31T18:33:13.173Z,97483.55
2019-01-31T18:35:43.362Z,97488.89
2019-01-31T18:38:11.201Z,97495.16
2019-01-31T18:40:39.051Z,97492.72
2019-01-31T18:43:06.948Z,97492.22
2019-01-31T18:45:34.921Z,97479.26
2019-01-31T18:48:07.823Z,97475.83
2019-01-31T18:50:39.478Z,97476.97
2019-01-31T18:53:07.475Z,97486.63
2019-01-31T18:55:35.276Z,97478.36
2019-01-31T18:58:03.822Z,97485.47
2019-01-31T19:00:35.661Z,97480.28
2019-01-31T19:03:03.967Z,97482.68
2019-01-31T19:05:31.936Z,97476.70
2019-01-31T19:08:00.011Z,97478.13
2019-01-31T19:10:27.836Z,97473.28
2019-01-31T19:12:55.763Z,97464.37
2019-01-31T19:15:23.790Z,97462.24
2019-01-31T19:17:51.797Z,97449.77
2019-01-31T19:20:25.655Z,97431.02
2019-01-31T19:22:57.637Z,97424.20
2019-01-31T19:25:47.249Z,97414.34
2019-01-31T19:28:15.206Z,97409.50
2019-01-31T19:30:45.159Z,97412.68
2019-01-31T19:33:13.256Z,97413.81
2019-01-31T19:35:41.250Z,97397.64
2019-01-31T19:38:09.738Z,97390.14
2019-01-31T19:40:40.931Z,97408.52
2019-01-31T19:43:08.831Z,97419.28
2019-01-31T19:45:42.562Z,97416.02
2019-01-31T19:48:10.892Z,97423.73
2019-01-31T19:50:39.061Z,97433.89
2019-01-31T19:53:08.341Z,97432.09
2019-01-31T19:55:36.254Z,97433.21
2019-01-31T19:58:05.035Z,97424.45
2019-01-31T20:00:33.301Z,97428.31
2019-01-31T20:03:01.270Z,97423.98
2019-01-31T20:05:30.006Z,97424.42
2019-01-31T20:07:57.932Z,97421.98
2019-01-31T20:10:27.853Z,97421.32
2019-01-31T20:12:55.891Z,97423.56
2019-01-31T20:15:24.190Z,97423.39
2019-01-31T20:17:52.015Z,97425.95
2019-01-31T20:20:22.841Z,97428.38
2019-01-31T20:22:52.638Z,97426.08
2019-01-31T20:25:21.215Z,97419.48
2019-01-31T20:27:49.586Z,97421.11
2019-01-31T20:30:21.116Z,97410.80
2019-01-31T20:32:49.141Z,97407.08
2019-01-31T20:35:17.201Z,97399.47
2019-01-31T20:37:45.079Z,97395.08
2019-01-31T20:40:16.908Z,97393.45
2019-01-31T20:42:44.923Z,97397.30
2019-01-31T20:45:14.770Z,97388.78
2019-01-31T20:47:42.746Z,97382.64
2019-01-31T20:50:17.881Z,97384.08
2019-01-31T20:52:46.033Z,97345.59
2019-01-31T20:55:14.335Z,97368.95
2019-01-31T20:57:42.342Z,97368.62
2019-01-31T21:00:34.375Z,97360.56
2019-01-31T21:03:03.617Z,97351.23
2019-01-31T21:05:31.575Z,97353.31
2019-01-31T21:07:59.455Z,97355.61
2019-01-31T21:10:27.794Z,97349.16
2019-01-31T21:12:55.718Z,97341.44
2019-01-31T21:15:23.627Z,97338.52
2019-01-31T21:17:51.409Z,97322.72
2019-01-31T21:20:20.490Z,97316.43
2019-01-31T21:22:48.459Z,97315.75
2019-01-31T21:25:22.446Z,97308.64
2019-01-31T21:27:55.958Z,97302.98
2019-01-31T21:30:27.517Z,97313.73
2019-01-31T21:32:55.405Z,97317.41
2019-01-31T21:35:24.534Z,97313.55
2019-01-31T21:37:52.314Z,97311.91
2019-01-31T21:40:20.303Z,97303.23
2019-01-31T21:42:48.116Z,97311.77
2019-01-31T21:45:16.215Z,97303.89
2019-01-31T21:47:44.001Z,97303.73
2019-01-31T21:50:15.839Z,97300.84
2019-01-31T21:52:43.692Z,97291.50
2019-01-31T21:55:12.121Z,97300.28
2019-01-31T21:57:39.939Z,97299.88
2019-01-31T22:00:16.142Z,97298.80
2019-01-31T22:02:44.060Z,97302.74
2019-01-31T22:05:12.812Z,97300.05
2019-01-31T22:07:40.666Z,97291.06
2019-01-31T22:10:09.202Z,97292.87
2019-01-31T22:12:36.989Z,97303.53
2019-01-31T22:15:10.558Z,97303.03
2019-01-31T22:17:39.717Z,97300.76
2019-01-31T22:20:08.885Z,97306.22
2019-01-31T22:22:36.686Z,97299.72
2019-01-31T22:25:06.996Z,97300.98
2019-01-31T22:27:34.776Z,97299.22
2019-01-31T22:30:05.498Z,97296.97
2019-01-31T22:32:52.538Z,97296.83
2019-01-31T22:35:20.432Z,97288.32
2019-01-31T22:37:48.263Z,97277.37
2019-01-31T22:40:16.822Z,97271.59
2019-01-31T22:42:44.693Z,97262.89
2019-01-31T22:45:15.607Z,97264.52
2019-01-31T22:47:44.032Z,97261.80
2019-01-31T22:50:14.426Z,97261.30
2019-01-31T22:52:42.206Z,97256.47
2019-01-31T22:55:10.734Z,97251.30
2019-01-31T22:57:38.513Z,97249.70
2019-01-31T23:00:59.685Z,97249.05
2019-01-31T23:03:27.474Z,97239.20
2019-01-31T23:05:55.297Z,97232.91
2019-01-31T23:08:23.385Z,97240.53
2019-01-31T23:10:51.215Z,97249.89
2019-01-31T23:13:18.967Z,97249.91
2019-01-31T23:15:46.800Z,97235.02
2019-01-31T23:18:29.829Z,97227.42
2019-01-31T23:20:57.653Z,97228.06
2019-01-31T23:23:25.512Z,97229.82
2019-01-31T23:26:12.759Z,97229.83
2019-01-31T23:28:50.726Z,97228.66
2019-01-31T23:31:18.481Z,97229.26
2019-01-31T23:33:46.763Z,97226.98
2019-01-31T23:36:14.575Z,97216.27
2019-01-31T23:38:42.355Z,97213.52
2019-01-31T23:41:10.184Z,97207.19
2019-01-31T23:43:37.978Z,97200.05
2019-01-31T23:46:11.919Z,97197.28
2019-01-31T23:48:39.691Z,97202.47
2019-01-31T23:51:07.484Z,97193.08
2019-01-31T23:53:35.368Z,97197.42
2019-01-31T23:56:03.603Z,97194.48
2019-01-31T23:58:31.494Z,97198.38
